Time;durP1;ratioP1;P1;durP2;ratioP2;P2;SDS_P1;SDS_P2;PMS_P1;PMS_P2;Temp;Humidity;BMP_temperature;BMP_pressure;BME280_temperature;BME280_humidity;BME280_pressure;Samples;Min_cycle;Max_cycle;Signal;HPM_P1;HPM_P2
2022/04/15 00:01:44;;;;;;;7.72;4.32;;;15.20;99.90;;;;;;5018589;28;20694;-77
2022/04/15 00:04:11;;;;;;;4.75;4.00;;;15.10;99.90;;;;;;5027119;28;20294;-81
2022/04/15 00:06:38;;;;;;;6.18;4.10;;;15.10;99.90;;;;;;5030686;28;20246;-78
2022/04/15 00:09:07;;;;;;;5.47;3.88;;;15.00;99.90;;;;;;5028933;28;20282;-79
2022/04/15 00:11:34;;;;;;;6.70;4.18;;;14.90;99.90;;;;;;5026763;28;20246;-79
2022/04/15 00:14:01;;;;;;;6.45;3.80;;;14.90;99.90;;;;;;5026490;28;20203;-80
2022/04/15 00:16:28;;;;;;;5.32;4.07;;;14.90;99.90;;;;;;5031356;28;20219;-79
2022/04/15 00:18:55;;;;;;;6.30;4.28;;;14.80;99.90;;;;;;5028258;28;20361;-76
2022/04/15 00:21:22;;;;;;;5.57;4.07;;;14.70;99.90;;;;;;5029099;28;20215;-80
2022/04/15 00:23:54;;;;;;;5.63;4.03;;;14.60;99.90;;;;;;5024364;28;20200;-78
2022/04/15 00:26:22;;;;;;;8.25;4.13;;;14.60;99.90;;;;;;5030410;28;20215;-79
2022/04/15 00:28:52;;;;;;;5.38;3.97;;;14.60;99.90;;;;;;5028369;28;20199;-80
2022/04/15 00:31:19;;;;;;;5.68;3.95;;;14.60;99.90;;;;;;5027473;28;20350;-79
2022/04/15 00:33:46;;;;;;;5.03;4.13;;;14.50;99.90;;;;;;5026221;28;20226;-80
2022/04/15 00:36:13;;;;;;;5.90;4.38;;;14.50;99.90;;;;;;5026644;28;20219;-78
2022/04/15 00:38:40;;;;;;;4.90;3.97;;;14.50;99.90;;;;;;5028653;28;20199;-81
2022/04/15 00:41:07;;;;;;;5.13;3.58;;;14.40;99.90;;;;;;5028152;28;20219;-79
2022/04/15 00:43:37;;;;;;;5.45;4.05;;;14.40;99.90;;;;;;5024640;28;20195;-79
2022/04/15 00:46:07;;;;;;;5.85;4.20;;;14.40;99.90;;;;;;5023835;28;20353;-79
2022/04/15 00:48:35;;;;;;;6.03;3.70;;;14.40;99.90;;;;;;5029024;28;20195;-77
2022/04/15 00:51:03;;;;;;;5.68;4.22;;;14.40;99.90;;;;;;5027629;28;20326;-79
2022/04/15 00:53:31;;;;;;;5.25;3.55;;;14.40;99.90;;;;;;5030357;28;20203;-77
2022/04/15 00:56:01;;;;;;;5.93;4.05;;;14.40;99.90;;;;;;5030770;28;20311;-79
2022/04/15 00:58:29;;;;;;;6.65;4.30;;;14.40;99.90;;;;;;5033582;28;20219;-80
2022/04/15 01:00:58;;;;;;;5.60;4.10;;;14.30;99.90;;;;;;5030447;28;20243;-76
2022/04/15 01:03:25;;;;;;;5.10;3.92;;;14.30;99.90;;;;;;5029635;28;20327;-79
2022/04/15 01:05:58;;;;;;;5.30;4.25;;;14.30;99.90;;;;;;5030510;28;20219;-78
2022/04/15 01:08:28;;;;;;;6.10;4.43;;;14.20;99.90;;;;;;5031239;28;20215;-80
2022/04/15 01:10:57;;;;;;;5.07;4.00;;;14.20;99.90;;;;;;5031152;28;20592;-80
2022/04/15 01:13:26;;;;;;;5.05;3.90;;;14.20;99.90;;;;;;5032614;28;20226;-80
2022/04/15 01:15:54;;;;;;;4.70;3.50;;;14.10;99.90;;;;;;5029290;28;20220;-80
2022/04/15 01:18:23;;;;;;;4.10;3.70;;;14.10;99.90;;;;;;5030894;28;20227;-78
2022/04/15 01:20:51;;;;;;;4.22;3.50;;;14.10;99.90;;;;;;5025738;28;20705;-79
2022/04/15 01:23:20;;;;;;;6.47;3.90;;;14.10;99.90;;;;;;5024980;28;20191;-80
2022/04/15 01:25:48;;;;;;;5.20;3.85;;;14.00;99.90;;;;;;5024422;28;20223;-80
2022/04/15 01:28:17;;;;;;;5.07;4.03;;;14.00;99.90;;;;;;5027591;28;20514;-78
2022/04/15 01:30:45;;;;;;;5.05;4.05;;;14.00;99.90;;;;;;5028203;28;20223;-80
2022/04/15 01:33:12;;;;;;;5.88;4.35;;;14.00;99.90;;;;;;5028142;28;20297;-78
2022/04/15 01:35:39;;;;;;;6.03;4.35;;;14.00;99.90;;;;;;5025764;28;20248;-77
2022/04/15 01:38:10;;;;;;;5.57;4.15;;;14.00;99.90;;;;;;5028242;28;20567;-78
2022/04/15 01:40:39;;;;;;;5.25;3.60;;;14.00;99.90;;;;;;5026360;28;20218;-79
2022/04/15 01:43:07;;;;;;;4.75;3.70;;;14.00;99.90;;;;;;5023001;28;20223;-78
2022/04/15 01:45:34;;;;;;;5.30;3.95;;;13.90;99.90;;;;;;5027525;28;20266;-80
2022/04/15 01:48:02;;;;;;;5.30;4.00;;;13.90;99.90;;;;;;5027292;28;20232;-77
2022/04/15 01:50:30;;;;;;;4.30;3.80;;;13.90;99.90;;;;;;5022436;28;20233;-78
2022/04/15 01:56:20;;;;;;;4.68;3.45;;;13.80;99.90;;;;;;5027658;28;20261;-79
2022/04/15 01:58:47;;;;;;;5.70;3.70;;;13.80;99.90;;;;;;5026703;28;20577;-79
2022/04/15 02:01:14;;;;;;;4.85;3.80;;;13.80;99.90;;;;;;5026962;28;20823;-80
2022/04/15 02:03:41;;;;;;;6.20;3.75;;;13.80;99.90;;;;;;5029766;28;20211;-83
2022/04/15 02:06:08;;;;;;;5.82;3.60;;;13.80;99.90;;;;;;5028994;28;20200;-80
2022/04/15 02:08:35;;;;;;;4.95;3.67;;;13.80;99.90;;;;;;5030934;28;20216;-79
2022/04/15 02:11:02;;;;;;;5.72;3.80;;;13.80;99.90;;;;;;5030893;28;20212;-78
2022/04/15 02:13:31;;;;;;;4.40;3.60;;;13.70;99.90;;;;;;5028219;28;20234;-80
2022/04/15 02:15:58;;;;;;;4.95;3.55;;;13.60;99.90;;;;;;5031580;28;20250;-79
2022/04/15 02:18:26;;;;;;;4.63;3.72;;;13.60;99.90;;;;;;5026144;28;20224;-78
2022/04/15 02:20:53;;;;;;;3.60;3.10;;;13.60;99.90;;;;;;5030304;28;20294;-80
2022/04/15 02:23:20;;;;;;;4.45;3.47;;;13.50;99.90;;;;;;5031042;28;20245;-76
2022/04/15 02:25:47;;;;;;;4.75;3.38;;;13.50;99.90;;;;;;5029760;28;20576;-78
2022/04/15 02:28:14;;;;;;;4.68;3.53;;;13.50;99.90;;;;;;5029966;28;20211;-80
2022/04/15 02:30:47;;;;;;;4.28;3.47;;;13.50;99.90;;;;;;5034669;28;20214;-83
2022/04/15 02:33:14;;;;;;;4.93;3.67;;;13.50;99.90;;;;;;5029321;28;20216;-78
2022/04/15 02:35:42;;;;;;;4.22;3.47;;;13.40;99.90;;;;;;5025997;28;20204;-77
2022/04/15 02:38:09;;;;;;;4.20;3.63;;;13.40;99.90;;;;;;5030366;28;20658;-81
2022/04/15 02:40:36;;;;;;;4.05;3.08;;;13.40;99.90;;;;;;5030332;28;20192;-78
2022/04/15 02:43:04;;;;;;;3.47;3.15;;;13.40;99.90;;;;;;5031986;28;20295;-78
2022/04/15 02:45:31;;;;;;;4.55;3.17;;;13.40;99.90;;;;;;5033289;28;20207;-77
2022/04/15 02:48:00;;;;;;;4.20;3.58;;;13.40;99.90;;;;;;5027419;28;20220;-78
2022/04/15 02:50:29;;;;;;;3.53;2.80;;;13.40;99.90;;;;;;5031183;28;20208;-80
2022/04/15 02:52:58;;;;;;;4.93;3.10;;;13.40;99.90;;;;;;5031201;28;20578;-79
2022/04/15 02:55:26;;;;;;;4.15;3.10;;;13.30;99.90;;;;;;5031592;28;20659;-78
2022/04/15 02:57:53;;;;;;;4.18;3.45;;;13.30;99.90;;;;;;5032891;28;20227;-79
2022/04/15 03:00:20;;;;;;;3.15;2.85;;;13.30;99.90;;;;;;5030171;28;20206;-77
2022/04/15 03:02:47;;;;;;;4.40;3.13;;;13.20;99.90;;;;;;5027926;28;20214;-80
2022/04/15 03:05:16;;;;;;;3.55;2.92;;;13.20;99.90;;;;;;5032806;28;20617;-79
2022/04/15 03:07:43;;;;;;;3.10;2.72;;;13.20;99.90;;;;;;5032749;28;20327;-82
2022/04/15 03:10:10;;;;;;;4.55;2.55;;;13.20;99.90;;;;;;5029246;28;20584;-80
2022/04/15 03:12:38;;;;;;;3.53;3.08;;;13.10;99.90;;;;;;5030726;28;20216;-84
2022/04/15 03:15:07;;;;;;;3.53;3.00;;;13.00;99.90;;;;;;5031325;28;20204;-80
2022/04/15 03:17:34;;;;;;;3.08;2.78;;;13.10;99.90;;;;;;5056376;22;20246;-75
2022/04/15 03:20:02;;;;;;;3.33;3.03;;;13.10;99.90;;;;;;5059576;28;20199;-77
2022/04/15 03:22:31;;;;;;;4.95;3.40;;;13.00;99.90;;;;;;5060393;28;20286;-76
2022/04/15 03:24:58;;;;;;;3.95;3.20;;;13.00;99.90;;;;;;5057778;28;20191;-77
2022/04/15 03:27:25;;;;;;;4.05;3.15;;;13.00;99.90;;;;;;5066018;28;20233;-76
2022/04/15 03:29:52;;;;;;;3.60;3.20;;;12.90;99.90;;;;;;5044878;28;20718;-77
2022/04/15 03:32:19;;;;;;;4.32;3.17;;;12.90;99.90;;;;;;5040348;28;20708;-76
2022/04/15 03:34:46;;;;;;;5.22;3.60;;;12.90;99.90;;;;;;5046705;28;20265;-78
2022/04/15 03:37:13;;;;;;;4.57;3.70;;;12.90;99.90;;;;;;5048358;28;20214;-76
2022/04/15 03:39:41;;;;;;;5.45;3.60;;;12.90;99.90;;;;;;5047253;28;20223;-76
2022/04/15 03:42:09;;;;;;;4.90;3.38;;;12.80;99.90;;;;;;5045795;28;20590;-77
2022/04/15 03:44:36;;;;;;;4.85;3.60;;;12.80;99.90;;;;;;5044532;28;20203;-76
2022/04/15 03:47:04;;;;;;;4.78;3.28;;;12.80;99.90;;;;;;5046230;28;20226;-78
2022/04/15 03:49:31;;;;;;;4.05;3.38;;;12.70;99.90;;;;;;5049389;28;20556;-77
2022/04/15 03:51:58;;;;;;;4.50;3.50;;;12.70;99.90;;;;;;5046070;28;20621;-76
2022/04/15 03:54:26;;;;;;;4.25;3.30;;;12.70;99.90;;;;;;5046614;28;20202;-78
2022/04/15 03:56:54;;;;;;;4.55;3.35;;;12.60;99.90;;;;;;5042605;28;20618;-76
2022/04/15 03:59:21;;;;;;;4.65;3.78;;;12.70;99.90;;;;;;5045129;28;20230;-78
2022/04/15 04:01:48;;;;;;;4.82;3.22;;;12.70;99.90;;;;;;5045042;28;20199;-76
2022/04/15 04:04:15;;;;;;;4.35;3.03;;;12.70;99.90;;;;;;5051652;28;20199;-76
2022/04/15 04:06:42;;;;;;;5.13;3.47;;;12.60;99.90;;;;;;5049353;28;20195;-77
2022/04/15 04:09:09;;;;;;;3.20;2.90;;;12.60;99.90;;;;;;5048277;28;20276;-76
2022/04/15 04:11:36;;;;;;;3.55;3.10;;;12.50;99.90;;;;;;5047066;28;20560;-77
2022/04/15 04:14:06;;;;;;;3.30;2.90;;;12.50;99.90;;;;;;5047793;28;20230;-78
2022/04/15 04:16:33;;;;;;;3.75;2.83;;;12.50;99.90;;;;;;5047939;28;20207;-77
2022/04/15 04:19:00;;;;;;;3.63;3.15;;;12.50;99.90;;;;;;5048863;28;20630;-77
2022/04/15 04:21:28;;;;;;;3.28;2.92;;;12.50;99.90;;;;;;5043850;28;20276;-78
2022/04/15 04:23:55;;;;;;;6.18;4.35;;;12.50;99.90;;;;;;5049157;28;20240;-76
2022/04/15 04:26:22;;;;;;;5.35;4.18;;;12.50;99.90;;;;;;5048665;28;20207;-76
2022/04/15 04:28:49;;;;;;;7.97;4.85;;;12.40;99.90;;;;;;5058050;28;20215;-77
2022/04/15 04:31:20;;;;;;;7.10;4.50;;;12.30;99.90;;;;;;5062095;28;20577;-77
2022/04/15 04:33:47;;;;;;;7.40;4.70;;;12.30;99.90;;;;;;5054780;28;20301;-78
2022/04/15 04:36:14;;;;;;;7.18;4.55;;;12.30;99.90;;;;;;5058533;28;20195;-77
2022/04/15 04:38:41;;;;;;;8.82;5.05;;;12.30;99.90;;;;;;5054579;28;20869;-76
2022/04/15 04:41:08;;;;;;;9.45;5.53;;;12.30;99.90;;;;;;5051016;28;20256;-79
2022/04/15 04:43:35;;;;;;;7.03;4.63;;;12.30;99.90;;;;;;5056240;28;20641;-78
2022/04/15 04:46:02;;;;;;;8.35;5.28;;;12.30;99.90;;;;;;5057500;28;20195;-77
2022/04/15 04:48:32;;;;;;;6.00;4.43;;;12.30;99.90;;;;;;5059371;28;20217;-77
2022/04/15 04:50:59;;;;;;;6.38;4.35;;;12.40;99.90;;;;;;5059587;28;20198;-79
2022/04/15 04:53:26;;;;;;;5.03;3.75;;;12.40;99.90;;;;;;5057948;28;20240;-76
2022/04/15 04:55:53;;;;;;;4.13;3.30;;;12.40;99.90;;;;;;5059241;28;20196;-77
2022/04/15 04:58:20;;;;;;;4.80;3.70;;;12.40;99.90;;;;;;5059216;28;20238;-78
2022/04/15 05:00:47;;;;;;;4.15;3.38;;;12.50;99.90;;;;;;5057920;28;20202;-78
2022/04/15 05:03:14;;;;;;;5.15;3.38;;;12.50;99.90;;;;;;5052601;28;20230;-78
2022/04/15 05:05:43;;;;;;;5.10;3.33;;;12.50;99.90;;;;;;5047308;28;20628;-76
2022/04/15 05:08:10;;;;;;;4.45;3.38;;;12.50;99.90;;;;;;5049046;28;20219;-76
2022/04/15 05:10:37;;;;;;;5.68;3.67;;;12.50;99.90;;;;;;5051203;28;20664;-76
2022/04/15 05:13:04;;;;;;;4.15;3.35;;;12.60;99.90;;;;;;5050863;28;20246;-76
2022/04/15 05:15:31;;;;;;;5.47;3.90;;;12.70;99.90;;;;;;5050084;28;20668;-76
2022/04/15 05:17:58;;;;;;;5.47;3.88;;;12.90;99.90;;;;;;5048103;28;20219;-76
2022/04/15 05:20:25;;;;;;;6.82;4.97;;;13.10;99.90;;;;;;5051815;28;20206;-76
2022/04/15 05:22:53;;;;;;;7.40;5.00;;;13.30;99.90;;;;;;5046234;28;20591;-76
2022/04/15 05:25:20;;;;;;;7.00;4.80;;;13.50;99.90;;;;;;5052960;28;20199;-76
2022/04/15 05:27:47;;;;;;;4.68;3.85;;;13.70;99.90;;;;;;5049947;28;20215;-76
2022/04/15 05:30:14;;;;;;;4.63;3.75;;;13.90;99.90;;;;;;5053248;28;20203;-76
2022/04/15 05:32:41;;;;;;;6.13;4.10;;;14.20;99.90;;;;;;5055214;28;20222;-75
2022/04/15 05:35:09;;;;;;;4.40;3.08;;;14.50;99.90;;;;;;5052762;28;20273;-78
2022/04/15 05:37:37;;;;;;;4.25;3.38;;;14.70;99.90;;;;;;5050422;28;20219;-76
2022/04/15 05:40:06;;;;;;;3.85;3.38;;;14.90;99.90;;;;;;5051973;28;20205;-77
2022/04/15 05:42:33;;;;;;;4.47;3.38;;;15.10;99.90;;;;;;5049389;28;20218;-77
2022/04/15 05:45:00;;;;;;;5.10;3.58;;;15.20;99.90;;;;;;5050758;28;20253;-76
2022/04/15 05:47:28;;;;;;;4.90;2.95;;;15.30;99.90;;;;;;5050495;28;20751;-78
2022/04/15 05:49:55;;;;;;;5.65;3.05;;;15.40;99.90;;;;;;5052245;28;20199;-77
2022/04/15 05:52:22;;;;;;;3.63;3.05;;;15.60;99.90;;;;;;5050441;28;20207;-76
2022/04/15 05:54:49;;;;;;;4.65;2.95;;;15.70;99.90;;;;;;5052982;28;20199;-77
2022/04/15 05:57:19;;;;;;;3.05;2.42;;;15.80;99.90;;;;;;5050282;28;20196;-77
2022/04/15 05:59:46;;;;;;;3.30;2.80;;;15.80;99.90;;;;;;5050049;28;20266;-77
2022/04/15 06:02:13;;;;;;;3.33;2.92;;;15.90;99.90;;;;;;5051006;28;20688;-76
2022/04/15 06:04:40;;;;;;;3.10;2.60;;;16.10;99.90;;;;;;5053943;28;20286;-76
2022/04/15 06:07:07;;;;;;;3.10;2.70;;;16.30;99.90;;;;;;5053778;28;20788;-77
2022/04/15 06:09:34;;;;;;;4.00;3.08;;;16.60;99.90;;;;;;5054099;28;20215;-76
2022/04/15 06:12:01;;;;;;;3.63;3.00;;;16.70;99.90;;;;;;5053484;28;20239;-78
2022/04/15 06:14:33;;;;;;;3.35;2.65;;;16.90;99.90;;;;;;5047173;28;20726;-77
2022/04/15 06:17:00;;;;;;;3.33;3.03;;;17.00;99.90;;;;;;5049945;28;20195;-77
2022/04/15 06:19:27;;;;;;;3.42;2.80;;;17.10;99.90;;;;;;5052987;28;20631;-76
2022/04/15 06:21:54;;;;;;;5.20;2.83;;;17.20;99.90;;;;;;5045548;28;20203;-77
2022/04/15 06:24:21;;;;;;;7.40;3.22;;;17.40;99.90;;;;;;5046438;28;20690;-76
2022/04/15 06:26:50;;;;;;;5.22;2.72;;;17.50;99.90;;;;;;5052554;28;20202;-77
2022/04/15 06:29:17;;;;;;;3.83;3.25;;;17.40;99.90;;;;;;5041761;28;20220;-76
2022/04/15 06:31:47;;;;;;;3.15;2.72;;;17.40;99.90;;;;;;5047195;28;20249;-77
2022/04/15 06:34:14;;;;;;;4.20;3.75;;;17.10;99.90;;;;;;5048457;28;20249;-76
2022/04/15 06:36:41;;;;;;;3.22;2.92;;;17.10;99.90;;;;;;5049326;28;20211;-77
2022/04/15 06:39:08;;;;;;;4.78;3.15;;;17.10;99.90;;;;;;5048926;28;20219;-76
2022/04/15 06:41:35;;;;;;;3.38;3.08;;;17.20;99.90;;;;;;5044472;28;20200;-76
2022/04/15 06:44:02;;;;;;;4.22;2.70;;;17.30;99.90;;;;;;5047254;28;20222;-76
2022/04/15 06:46:32;;;;;;;2.47;2.28;;;17.30;99.90;;;;;;5043363;28;20676;-78
2022/04/15 06:49:00;;;;;;;4.45;3.05;;;17.70;99.90;;;;;;5041948;28;20547;-77
2022/04/15 06:51:27;;;;;;;6.28;2.97;;;18.10;99.90;;;;;;5042360;28;20192;-76
2022/04/15 06:53:54;;;;;;;3.78;3.38;;;18.20;99.90;;;;;;5044404;28;20408;-76
2022/04/15 06:56:21;;;;;;;7.93;3.45;;;18.40;99.90;;;;;;5034731;28;20198;-77
2022/04/15 06:58:49;;;;;;;3.83;3.45;;;18.30;99.90;;;;;;5042634;28;20230;-77
2022/04/15 07:01:16;;;;;;;4.05;3.22;;;18.20;99.90;;;;;;5042143;28;20292;-77
2022/04/15 07:03:43;;;;;;;5.80;4.05;;;18.10;99.90;;;;;;5046075;28;20226;-79
2022/04/15 07:06:11;;;;;;;3.65;3.30;;;18.10;99.90;;;;;;5043884;28;20199;-76
2022/04/15 07:08:38;;;;;;;4.90;3.58;;;18.20;99.90;;;;;;5040894;28;20229;-77
2022/04/15 07:11:05;;;;;;;3.45;3.08;;;18.20;99.90;;;;;;5046829;28;20207;-75
2022/04/15 07:13:32;;;;;;;3.05;2.85;;;18.20;99.90;;;;;;5042789;28;20234;-75
2022/04/15 07:15:59;;;;;;;3.53;3.03;;;18.50;99.90;;;;;;5045818;28;20706;-77
2022/04/15 07:18:26;;;;;;;4.25;3.28;;;18.70;99.90;;;;;;5044611;28;20226;-76
2022/04/15 07:20:53;;;;;;;4.47;3.72;;;18.80;99.90;;;;;;5042217;28;20245;-77
2022/04/15 07:23:22;;;;;;;3.78;3.38;;;18.80;99.90;;;;;;5046575;28;20593;-78
2022/04/15 07:25:49;;;;;;;6.15;3.72;;;18.70;99.90;;;;;;5047005;28;20553;-76
2022/04/15 07:28:16;;;;;;;6.25;3.63;;;18.90;99.90;;;;;;5041887;28;20231;-76
2022/04/15 07:30:43;;;;;;;5.18;3.58;;;19.00;99.90;;;;;;5044974;28;20252;-76
2022/04/15 07:33:10;;;;;;;3.75;3.30;;;19.00;99.90;;;;;;5039538;28;20235;-75
2022/04/15 07:35:37;;;;;;;4.78;3.45;;;19.20;99.90;;;;;;5044054;28;20199;-76
2022/04/15 07:38:04;;;;;;;3.53;3.20;;;19.30;99.90;;;;;;5040762;28;20231;-76
2022/04/15 07:40:32;;;;;;;4.30;3.67;;;19.30;99.90;;;;;;5049146;28;20205;-77
2022/04/15 07:42:59;;;;;;;4.78;3.33;;;19.40;99.90;;;;;;5047350;28;20226;-76
2022/04/15 07:45:27;;;;;;;4.82;3.35;;;19.60;99.90;;;;;;5041256;28;20210;-78
2022/04/15 07:47:55;;;;;;;3.67;3.38;;;19.60;99.90;;;;;;5045057;28;20567;-78
2022/04/15 07:50:25;;;;;;;3.72;3.38;;;19.60;99.90;;;;;;5046059;28;20238;-77
2022/04/15 07:52:55;;;;;;;4.82;3.40;;;19.70;99.90;;;;;;5046097;28;20569;-77
2022/04/15 07:55:22;;;;;;;6.05;3.80;;;19.80;99.90;;;;;;5041974;28;20231;-76
2022/04/15 07:57:51;;;;;;;5.88;3.65;;;19.90;99.90;;;;;;5046145;28;20227;-76
2022/04/15 08:00:20;;;;;;;4.35;3.70;;;20.10;99.90;;;;;;5044258;28;20618;-79
2022/04/15 08:02:47;;;;;;;5.20;3.22;;;20.10;99.90;;;;;;5044655;28;20277;-77
2022/04/15 08:05:14;;;;;;;4.82;3.40;;;20.10;99.90;;;;;;5041684;28;20210;-76
2022/04/15 08:07:41;;;;;;;8.00;3.85;;;20.20;99.90;;;;;;5046106;28;20227;-77
2022/04/15 08:10:09;;;;;;;3.53;3.10;;;20.20;99.90;;;;;;5048965;28;20807;-78
2022/04/15 08:12:37;;;;;;;3.75;3.20;;;20.40;99.90;;;;;;5041376;28;20210;-77
2022/04/15 08:15:07;;;;;;;3.40;3.10;;;20.40;99.90;;;;;;5045128;28;20306;-78
2022/04/15 08:17:35;;;;;;;4.50;3.42;;;20.50;99.90;;;;;;5047489;28;20704;-77
2022/04/15 08:20:02;;;;;;;4.97;3.38;;;20.50;99.90;;;;;;5048684;28;20558;-78
2022/04/15 08:22:34;;;;;;;4.82;3.28;;;20.50;99.90;;;;;;5045642;28;20303;-77
2022/04/15 08:25:01;;;;;;;4.70;3.40;;;20.50;99.90;;;;;;5042071;28;20716;-78
2022/04/15 08:27:28;;;;;;;5.07;3.28;;;20.50;99.90;;;;;;5043272;28;20252;-78
2022/04/15 08:29:55;;;;;;;5.28;3.45;;;20.60;99.90;;;;;;5044597;28;20231;-78
2022/04/15 08:32:23;;;;;;;4.35;3.13;;;20.60;99.90;;;;;;5051684;28;20207;-77
2022/04/15 08:34:51;;;;;;;4.15;3.00;;;20.80;99.90;;;;;;5050470;28;20219;-75
2022/04/15 08:37:18;;;;;;;5.40;3.38;;;21.00;99.90;;;;;;5049092;28;20198;-78
2022/04/15 08:39:45;;;;;;;4.05;3.40;;;21.10;99.90;;;;;;5045943;28;20211;-78
2022/04/15 08:42:12;;;;;;;3.85;3.33;;;21.30;99.90;;;;;;5052193;28;20195;-77
2022/04/15 08:44:39;;;;;;;3.20;2.90;;;21.40;99.90;;;;;;5049530;28;20212;-77
2022/04/15 08:47:08;;;;;;;4.15;3.45;;;21.50;99.90;;;;;;5049436;28;20199;-78
2022/04/15 08:49:37;;;;;;;4.20;3.17;;;21.50;99.90;;;;;;5047537;28;20301;-76
2022/04/15 08:52:06;;;;;;;4.40;3.47;;;21.50;99.90;;;;;;5051125;28;20199;-77
2022/04/15 08:54:33;;;;;;;4.50;3.28;;;21.60;99.90;;;;;;5051066;28;20285;-76
2022/04/15 08:57:00;;;;;;;5.40;3.60;;;21.50;99.90;;;;;;5052319;28;20249;-77
2022/04/15 08:59:27;;;;;;;5.55;3.78;;;21.70;99.90;;;;;;5054363;28;20219;-76
2022/04/15 09:01:55;;;;;;;3.75;2.72;;;21.80;99.90;;;;;;5050581;28;20202;-77
2022/04/15 09:04:22;;;;;;;4.45;3.33;;;22.00;99.90;;;;;;5055455;28;20231;-77
2022/04/15 09:06:57;;;;;;;4.70;3.50;;;22.30;99.90;;;;;;5051844;28;20199;-77
2022/04/15 09:09:29;;;;;;;5.95;3.55;;;22.40;99.90;;;;;;5043252;28;20659;-77
2022/04/15 09:11:57;;;;;;;6.47;3.17;;;22.40;99.90;;;;;;5047197;28;20199;-77
2022/04/15 09:14:25;;;;;;;3.33;2.85;;;22.60;99.90;;;;;;5046216;28;20797;-77
2022/04/15 09:16:52;;;;;;;2.92;2.53;;;22.90;99.90;;;;;;5044062;28;20206;-77
2022/04/15 09:19:20;;;;;;;3.60;2.97;;;23.00;99.90;;;;;;5060131;23;20234;-75
2022/04/15 09:21:52;;;;;;;3.25;2.67;;;22.70;98.80;;;;;;5039064;28;20722;-75
2022/04/15 09:24:27;;;;;;;3.00;2.70;;;22.60;99.20;;;;;;5039580;28;20219;-76
2022/04/15 09:26:54;;;;;;;4.68;2.80;;;22.50;99.60;;;;;;5046433;28;20202;-76
2022/04/15 09:29:23;;;;;;;3.80;2.78;;;22.50;99.10;;;;;;5045658;28;20211;-76
2022/04/15 09:31:55;;;;;;;3.42;2.78;;;22.40;99.30;;;;;;5045997;28;20790;-76
2022/04/15 09:34:22;;;;;;;4.32;2.92;;;22.30;98.50;;;;;;5043496;28;20760;-75
2022/04/15 09:36:50;;;;;;;4.28;3.05;;;22.20;98.60;;;;;;5047932;28;20210;-75
2022/04/15 09:39:17;;;;;;;4.03;2.85;;;22.10;99.40;;;;;;5046430;28;20226;-76
2022/04/15 09:41:54;;;;;;;5.50;3.00;;;22.00;98.10;;;;;;5047208;28;20605;-76
2022/04/15 09:44:22;;;;;;;3.40;2.70;;;22.10;98.10;;;;;;5049134;28;20623;-75
2022/04/15 09:46:52;;;;;;;4.95;2.90;;;22.40;98.90;;;;;;5049773;28;20286;-76
2022/04/15 09:49:19;;;;;;;5.88;3.35;;;22.50;97.70;;;;;;5055813;28;20231;-76
2022/04/15 09:51:48;;;;;;;4.93;3.08;;;22.60;98.40;;;;;;5046411;28;20205;-75
2022/04/15 09:54:23;;;;;;;3.90;3.17;;;22.70;97.90;;;;;;5049302;28;20234;-75
2022/04/15 09:56:53;;;;;;;4.03;2.95;;;22.80;98.40;;;;;;5047165;28;20564;-76
2022/04/15 09:59:22;;;;;;;3.65;3.00;;;22.80;97.70;;;;;;5047329;28;20227;-75
2022/04/15 10:01:54;;;;;;;5.25;3.20;;;22.70;97.80;;;;;;5048616;28;20820;-76
2022/04/15 10:04:23;;;;;;;6.50;2.83;;;22.70;98.20;;;;;;5048509;28;20223;-75
2022/04/15 10:06:51;;;;;;;3.13;2.83;;;22.50;98.00;;;;;;5049973;28;20577;-75
2022/04/15 10:09:18;;;;;;;6.30;3.22;;;22.50;98.70;;;;;;5045979;28;20222;-75
2022/04/15 10:11:46;;;;;;;6.25;3.35;;;22.50;98.70;;;;;;5043099;28;20203;-75
2022/04/15 10:14:16;;;;;;;3.88;3.05;;;22.40;98.60;;;;;;5048752;28;20224;-75
2022/04/15 10:16:44;;;;;;;4.57;3.38;;;22.40;98.50;;;;;;5049980;28;20234;-75
2022/04/15 10:19:13;;;;;;;7.25;3.58;;;22.50;98.30;;;;;;5049098;28;20601;-75
2022/04/15 10:21:42;;;;;;;5.63;2.88;;;22.60;98.60;;;;;;5048953;28;20203;-75
2022/04/15 10:24:09;;;;;;;5.10;3.67;;;22.90;99.40;;;;;;5048248;28;20628;-75
2022/04/15 10:26:40;;;;;;;4.88;3.17;;;23.00;98.40;;;;;;5049428;28;20202;-75
2022/04/15 10:29:09;;;;;;;3.38;3.08;;;22.90;99.00;;;;;;5046930;28;20219;-75
2022/04/15 10:31:43;;;;;;;3.85;3.10;;;23.20;99.30;;;;;;5045789;28;20286;-75
2022/04/15 10:34:12;;;;;;;4.22;3.00;;;23.50;98.60;;;;;;5049384;28;20234;-75
2022/04/15 10:36:43;;;;;;;4.97;3.65;;;23.70;97.40;;;;;;5048849;28;20554;-75
2022/04/15 10:39:16;;;;;;;7.07;3.90;;;23.60;97.70;;;;;;5049309;28;20284;-75
2022/04/15 10:42:04;;;;;;;4.90;3.03;;;23.60;98.00;;;;;;5061657;28;20436;-76
2022/04/15 10:44:37;;;;;;;3.42;3.13;;;23.70;97.10;;;;;;5048094;28;20632;-75
2022/04/15 10:47:11;;;;;;;5.75;3.40;;;24.00;97.40;;;;;;5049573;28;20191;-76
2022/04/15 10:49:40;;;;;;;5.68;3.20;;;23.90;96.40;;;;;;5046351;28;20668;-75
2022/04/15 10:52:18;;;;;;;4.60;2.80;;;23.70;96.50;;;;;;5049281;28;20201;-74
2022/04/15 10:54:46;;;;;;;4.03;3.15;;;24.00;96.60;;;;;;5044938;28;20720;-74
2022/04/15 10:57:15;;;;;;;3.65;3.10;;;24.00;96.20;;;;;;5049237;28;20823;-74
2022/04/15 11:02:40;;;;;;;5.20;2.90;;;23.90;97.30;;;;;;5048830;28;20202;-74
2022/04/15 11:05:11;;;;;;;9.63;3.22;;;24.10;96.70;;;;;;5048286;28;20704;-75
2022/04/15 11:08:04;;;;;;;3.55;3.03;;;24.10;96.40;;;;;;5048176;28;20226;-76
2022/04/15 11:10:47;;;;;;;4.53;2.85;;;24.10;96.60;;;;;;5046039;28;20485;-75
2022/04/15 11:13:32;;;;;;;4.28;2.70;;;24.40;96.10;;;;;;5045502;28;20205;-75
2022/04/15 11:16:00;;;;;;;5.30;3.03;;;24.70;97.00;;;;;;5046077;28;20218;-75
2022/04/15 11:18:47;;;;;;;3.10;2.80;;;25.00;97.70;;;;;;5047192;28;20306;-75
2022/04/15 11:21:17;;;;;;;5.50;2.90;;;24.90;97.00;;;;;;5047813;28;20674;-76
2022/04/15 11:23:50;;;;;;;5.82;3.38;;;25.00;96.70;;;;;;5048165;28;20262;-75
2022/04/15 11:26:18;;;;;;;7.82;3.25;;;25.20;96.10;;;;;;5045987;28;20217;-75
2022/04/15 11:28:46;;;;;;;7.07;2.97;;;24.90;95.20;;;;;;5048431;28;20215;-73
2022/04/15 11:31:24;;;;;;;5.22;3.10;;;25.00;95.40;;;;;;5049191;28;20689;-74
2022/04/15 11:33:53;;;;;;;3.35;2.67;;;25.00;95.50;;;;;;5045009;28;20638;-76
2022/04/15 11:36:21;;;;;;;3.90;2.70;;;25.00;95.10;;;;;;5059884;28;20231;-74
2022/04/15 11:38:49;;;;;;;3.25;2.60;;;25.30;96.10;;;;;;5044417;28;20305;-75
2022/04/15 11:41:17;;;;;;;4.10;3.13;;;25.50;95.50;;;;;;5048159;28;20222;-75
2022/04/15 11:43:54;;;;;;;3.28;2.60;;;25.40;95.00;;;;;;5044432;28;20277;-75
2022/04/15 11:46:21;;;;;;;6.13;3.10;;;24.90;94.90;;;;;;5044191;28;20584;-75
2022/04/15 11:48:50;;;;;;;6.00;2.97;;;24.70;95.40;;;;;;5047713;28;20272;-75
2022/04/15 11:51:23;;;;;;;5.68;2.70;;;24.50;95.30;;;;;;5045660;28;20268;-75
2022/04/15 11:53:50;;;;;;;4.40;2.63;;;24.60;95.50;;;;;;5042391;28;20195;-75
2022/04/15 11:56:17;;;;;;;2.80;2.50;;;25.10;95.80;;;;;;5048753;28;20775;-75
2022/04/15 11:58:45;;;;;;;2.85;2.55;;;25.40;94.50;;;;;;5048327;28;20264;-75
2022/04/15 12:01:12;;;;;;;4.53;2.70;;;25.40;93.80;;;;;;5047955;28;20230;-75
2022/04/15 12:03:43;;;;;;;5.35;3.28;;;25.60;94.00;;;;;;5047546;28;20195;-75
2022/04/15 12:06:10;;;;;;;4.03;2.53;;;25.90;94.60;;;;;;5046068;28;20223;-75
2022/04/15 12:08:39;;;;;;;4.93;2.90;;;26.00;94.40;;;;;;5046699;28;20214;-75
2022/04/15 12:11:06;;;;;;;3.20;2.60;;;26.00;93.00;;;;;;5047243;28;20218;-77
2022/04/15 12:13:35;;;;;;;8.43;2.55;;;25.90;93.40;;;;;;5044007;28;20203;-75
2022/04/15 12:16:02;;;;;;;3.25;2.63;;;26.10;92.70;;;;;;5047707;28;20222;-74
2022/04/15 12:18:29;;;;;;;3.67;2.53;;;26.40;93.30;;;;;;5048148;28;20253;-77
2022/04/15 12:20:57;;;;;;;4.47;2.38;;;26.20;92.20;;;;;;5046969;28;20218;-77
2022/04/15 12:23:26;;;;;;;5.93;2.42;;;26.10;91.80;;;;;;5047977;28;20256;-77
2022/04/15 12:26:09;;;;;;;3.00;2.45;;;26.20;92.00;;;;;;5047474;28;20214;-75
2022/04/15 12:31:29;;;;;;;3.88;2.60;;;26.40;91.40;;;;;;5047373;28;20225;-74
2022/04/15 12:33:56;;;;;;;3.90;2.17;;;26.60;92.20;;;;;;5048441;28;20191;-75
2022/04/15 12:36:23;;;;;;;3.30;2.25;;;26.70;92.40;;;;;;5047679;28;20284;-78
2022/04/15 12:39:01;;;;;;;2.72;2.10;;;26.40;92.30;;;;;;5048453;28;20628;-76
2022/04/15 12:41:43;;;;;;;7.75;2.40;;;25.90;92.00;;;;;;5046025;28;20222;-77
2022/04/15 12:44:18;;;;;;;3.85;2.20;;;25.60;91.60;;;;;;5047011;28;20207;-77
2022/04/15 12:46:48;;;;;;;2.80;2.17;;;25.70;92.10;;;;;;5044702;28;20199;-76
2022/04/15 12:49:29;;;;;;;2.67;1.95;;;26.00;92.60;;;;;;5046904;28;20214;-76
2022/04/15 12:52:08;;;;;;;3.85;2.20;;;26.40;91.80;;;;;;5043962;28;20219;-77
2022/04/15 12:54:35;;;;;;;2.65;1.70;;;26.70;90.20;;;;;;5046789;28;20223;-77
2022/04/15 12:57:04;;;;;;;4.15;1.92;;;26.70;90.80;;;;;;5047982;28;20191;-77
2022/04/15 12:59:31;;;;;;;3.33;2.13;;;26.80;90.60;;;;;;5048360;28;20222;-77
2022/04/15 13:01:58;;;;;;;2.60;2.13;;;26.60;90.40;;;;;;5047436;28;20195;-76
2022/04/15 13:04:26;;;;;;;4.03;2.33;;;26.40;90.80;;;;;;5048355;28;20191;-77